createdAt,value
2022-08-07T00:02:40.730Z,16.11
2022-08-07T00:05:31.777Z,15.66
2022-08-07T00:08:23.840Z,15.49
2022-08-07T00:11:11.435Z,15.60
2022-08-07T00:13:59.462Z,16.07
2022-08-07T00:16:47.064Z,16.48
2022-08-07T00:20:01.546Z,16.29
2022-08-07T00:22:42.753Z,15.77
2022-08-07T00:25:41.488Z,15.67
2022-08-07T00:28:33.164Z,15.18
2022-08-07T00:31:21.823Z,15.58
2022-08-07T00:34:09.825Z,15.80
2022-08-07T00:36:57.563Z,16.51
2022-08-07T00:39:45.431Z,16.04
2022-08-07T00:42:42.289Z,15.60
2022-08-07T00:45:30.232Z,15.91
2022-08-07T00:48:19.128Z,15.73
2022-08-07T00:51:12.740Z,15.68
2022-08-07T00:54:00.379Z,15.89
2022-08-07T00:56:49.617Z,15.65
2022-08-07T00:59:37.613Z,16.13
2022-08-07T01:02:29.334Z,16.53
2022-08-07T01:05:19.002Z,17.18
2022-08-07T01:08:09.123Z,16.41
2022-08-07T01:10:56.817Z,15.84
2022-08-07T01:13:55.699Z,15.46
2022-08-07T01:16:47.372Z,15.91
2022-08-07T01:19:38.450Z,15.63
2022-08-07T01:22:29.221Z,15.69
2022-08-07T01:25:53.745Z,15.92
2022-08-07T01:28:24.897Z,15.53
2022-08-07T01:31:15.522Z,16.16
2022-08-07T01:34:05.555Z,16.77
2022-08-07T01:36:57.954Z,15.87
2022-08-07T01:39:46.887Z,16.96
2022-08-07T01:42:40.292Z,16.51
2022-08-07T01:45:42.328Z,16.94
2022-08-07T01:48:34.466Z,16.66
2022-08-07T01:52:02.129Z,16.77
2022-08-07T01:54:32.897Z,16.82
2022-08-07T01:57:25.149Z,16.24
2022-08-07T02:00:13.719Z,16.88
2022-08-07T02:03:19.334Z,17.03
2022-08-07T02:06:30.971Z,17.64
2022-08-07T02:09:33.916Z,17.20
2022-08-07T02:12:30.985Z,17.70
2022-08-07T02:15:18.790Z,17.66
2022-08-07T02:18:06.626Z,17.75
2022-08-07T02:20:57.364Z,17.97
2022-08-07T02:23:45.181Z,17.61
2022-08-07T02:26:34.658Z,16.80
2022-08-07T02:29:23.867Z,17.35
2022-08-07T02:32:11.463Z,17.66
2022-08-07T02:35:00.997Z,18.08
2022-08-07T02:37:48.722Z,18.07
2022-08-07T02:40:36.396Z,18.10
2022-08-07T02:43:24.162Z,17.41
2022-08-07T02:46:14.469Z,18.31
2022-08-07T02:49:03.278Z,17.46
2022-08-07T02:51:52.849Z,17.64
2022-08-07T02:54:41.194Z,17.67
2022-08-07T02:57:31.185Z,17.97
2022-08-07T03:00:22.665Z,17.99
2022-08-07T03:03:13.520Z,19.07
2022-08-07T03:06:16.482Z,17.75
2022-08-07T03:09:13.280Z,17.87
2022-08-07T03:12:02.874Z,16.95
2022-08-07T03:14:52.597Z,16.74
2022-08-07T03:17:52.875Z,16.77
2022-08-07T03:20:41.739Z,16.99
2022-08-07T03:23:33.796Z,16.92
2022-08-07T03:26:23.492Z,17.15
2022-08-07T03:29:14.671Z,18.02
2022-08-07T03:32:02.539Z,17.99
2022-08-07T03:35:16.929Z,18.19
2022-08-07T03:37:58.641Z,18.27
2022-08-07T03:40:46.382Z,18.82
2022-08-07T03:43:44.151Z,17.68
2022-08-07T03:47:13.481Z,18.75
2022-08-07T03:49:53.658Z,18.35
2022-08-07T03:52:41.351Z,18.20
2022-08-07T03:55:52.796Z,18.67
2022-08-07T03:59:08.746Z,18.17
2022-08-07T04:01:45.413Z,17.94
2022-08-07T04:04:33.404Z,17.54
2022-08-07T04:07:22.916Z,17.67
2022-08-07T04:10:15.572Z,16.97
2022-08-07T04:13:27.785Z,17.50
2022-08-07T04:16:15.529Z,17.75
2022-08-07T04:19:18.073Z,17.40
2022-08-07T04:22:12.207Z,18.17
2022-08-07T04:25:02.310Z,18.95
2022-08-07T04:27:59.035Z,18.90
2022-08-07T04:30:55.339Z,18.94
2022-08-07T04:33:45.025Z,19.53
2022-08-07T04:36:32.651Z,19.25
2022-08-07T04:39:25.415Z,19.58
2022-08-07T04:42:13.495Z,18.73
2022-08-07T04:45:03.227Z,18.87
2022-08-07T04:47:56.885Z,18.86
2022-08-07T04:50:52.910Z,18.82
2022-08-07T04:54:05.746Z,19.05
2022-08-07T04:58:10.351Z,19.59
2022-08-07T05:00:11.363Z,19.79
2022-08-07T05:03:02.318Z,20.17
2022-08-07T05:06:16.307Z,19.77
2022-08-07T05:09:07.516Z,18.77
2022-08-07T05:11:58.576Z,18.66
2022-08-07T05:14:53.681Z,18.87
2022-08-07T05:17:50.970Z,19.04
2022-08-07T05:20:40.766Z,19.15
2022-08-07T05:23:31.003Z,18.69
2022-08-07T05:26:23.627Z,18.92
2022-08-07T05:29:11.463Z,20.01
2022-08-07T05:32:01.942Z,19.13
2022-08-07T05:34:51.094Z,19.10
2022-08-07T05:37:40.853Z,18.62
2022-08-07T05:40:30.046Z,18.92
2022-08-07T05:43:49.509Z,18.86
2022-08-07T05:46:29.510Z,18.19
2022-08-07T05:49:17.292Z,18.85
2022-08-07T05:52:04.957Z,19.15
2022-08-07T05:54:55.352Z,18.86
2022-08-07T05:57:44.892Z,19.89
2022-08-07T06:00:32.682Z,18.73
2022-08-07T06:03:20.289Z,19.48
2022-08-07T06:06:09.930Z,19.62
2022-08-07T06:09:05.270Z,19.56
2022-08-07T06:11:52.944Z,18.63
2022-08-07T06:14:40.542Z,19.26
2022-08-07T06:17:37.392Z,19.33
2022-08-07T06:20:49.723Z,20.02
2022-08-07T06:24:37.160Z,19.52
2022-08-07T06:26:41.194Z,20.43
2022-08-07T06:29:29.137Z,20.23
2022-08-07T06:32:16.971Z,20.04
2022-08-07T06:35:10.622Z,19.88
2022-08-07T06:38:05.727Z,21.27
2022-08-07T06:40:55.917Z,21.03
2022-08-07T06:43:46.281Z,21.03
2022-08-07T06:46:53.734Z,21.50
2022-08-07T06:49:58.413Z,21.44
2022-08-07T06:52:46.565Z,21.66
2022-08-07T06:56:00.318Z,22.52
2022-08-07T07:00:14.773Z,23.15
2022-08-07T07:01:55.832Z,24.26
2022-08-07T07:04:54.929Z,23.76
2022-08-07T07:08:00.239Z,23.60
2022-08-07T07:10:56.587Z,23.93
2022-08-07T07:13:57.632Z,24.10
2022-08-07T07:16:51.133Z,23.29
2022-08-07T07:19:56.404Z,22.68
2022-08-07T07:24:09.263Z,22.58
2022-08-07T07:26:32.120Z,22.35
2022-08-07T07:29:56.517Z,22.32
2022-08-07T07:32:10.787Z,22.39
2022-08-07T07:34:58.419Z,21.64
2022-08-07T07:37:56.022Z,21.26
2022-08-07T07:40:46.910Z,20.66
2022-08-07T07:44:13.969Z,20.23
2022-08-07T07:46:55.309Z,20.89
2022-08-07T07:50:36.038Z,20.22
2022-08-07T07:52:55.697Z,19.47
2022-08-07T07:55:45.719Z,19.10
2022-08-07T07:58:45.216Z,19.93
2022-08-07T08:02:04.781Z,20.22
2022-08-07T08:04:42.562Z,20.02
2022-08-07T08:07:35.876Z,18.58
2022-08-07T08:10:35.637Z,18.95
2022-08-07T08:13:26.485Z,17.88
2022-08-07T08:16:24.981Z,17.99
2022-08-07T08:19:17.673Z,17.72
2022-08-07T08:22:17.117Z,17.87
2022-08-07T08:25:24.907Z,17.79
2022-08-07T08:28:12.603Z,17.39
2022-08-07T08:31:05.133Z,18.26
2022-08-07T08:33:55.341Z,17.59
2022-08-07T08:36:46.329Z,17.33
2022-08-07T08:39:39.777Z,17.33
2022-08-07T08:42:41.605Z,17.44
2022-08-07T08:45:59.607Z,17.16
2022-08-07T08:48:38.712Z,16.98
2022-08-07T08:52:00.974Z,16.66
2022-08-07T08:54:35.243Z,16.04
2022-08-07T08:57:26.690Z,16.03
2022-08-07T09:00:18.161Z,16.41
2022-08-07T09:03:07.514Z,16.07
2022-08-07T09:05:55.831Z,15.29
2022-08-07T09:08:44.178Z,15.03
2022-08-07T09:11:43.484Z,15.50
2022-08-07T09:14:42.130Z,14.53
2022-08-07T09:17:58.690Z,14.56
2022-08-07T09:20:58.668Z,13.47
2022-08-07T09:24:31.147Z,13.77
2022-08-07T09:26:56.969Z,14.08
2022-08-07T09:30:05.933Z,13.81
2022-08-07T09:32:52.345Z,13.01
2022-08-07T09:36:05.469Z,12.89
2022-08-07T09:38:49.978Z,12.42
2022-08-07T09:41:43.249Z,12.20
2022-08-07T09:44:58.358Z,11.99
2022-08-07T09:48:00.341Z,12.57
2022-08-07T09:50:46.217Z,12.01
2022-08-07T09:53:41.215Z,12.05
2022-08-07T09:56:37.495Z,11.59
2022-08-07T09:59:35.639Z,12.12
2022-08-07T10:02:32.469Z,11.52
2022-08-07T10:06:01.236Z,11.70
2022-08-07T10:08:29.634Z,11.42
2022-08-07T10:12:02.287Z,11.15
2022-08-07T10:14:31.108Z,10.80
2022-08-07T10:17:18.980Z,11.81
2022-08-07T10:20:06.634Z,11.85
2022-08-07T10:23:00.672Z,11.70
2022-08-07T10:25:51.927Z,13.66
2022-08-07T10:28:40.738Z,11.41
2022-08-07T10:31:31.499Z,11.53
2022-08-07T10:34:27.182Z,11.24
2022-08-07T10:37:26.121Z,10.23
2022-08-07T10:40:30.369Z,12.00
2022-08-07T10:43:19.487Z,10.64
2022-08-07T10:46:22.184Z,11.41
2022-08-07T10:49:09.790Z,11.34
2022-08-07T10:52:12.924Z,10.98
2022-08-07T10:55:21.019Z,10.24
2022-08-07T10:58:09.069Z,11.16
2022-08-07T11:00:57.940Z,11.80
2022-08-07T11:03:52.491Z,11.47
2022-08-07T11:06:44.579Z,10.80
2022-08-07T11:10:07.924Z,11.03
2022-08-07T11:12:39.786Z,10.95
2022-08-07T11:15:33.037Z,10.68
2022-08-07T11:18:20.651Z,9.72
2022-08-07T11:21:12.047Z,9.52
2022-08-07T11:24:01.855Z,9.39
2022-08-07T11:26:50.510Z,8.95
2022-08-07T11:29:42.214Z,8.87
2022-08-07T11:32:31.886Z,8.56
2022-08-07T11:35:25.295Z,9.18
2022-08-07T11:38:17.336Z,10.68
2022-08-07T11:41:05.595Z,9.76
2022-08-07T11:44:10.780Z,9.40
2022-08-07T11:47:00.483Z,9.75
2022-08-07T11:50:25.223Z,9.42
2022-08-07T11:52:55.728Z,9.39
2022-08-07T11:56:25.083Z,9.06
2022-08-07T11:58:50.881Z,9.85
2022-08-07T12:02:01.190Z,9.99
2022-08-07T12:04:46.018Z,9.58
2022-08-07T12:07:39.870Z,9.99
2022-08-07T12:10:27.738Z,9.70
2022-08-07T12:13:18.621Z,10.41
2022-08-07T12:16:30.651Z,10.02
2022-08-07T12:19:21.765Z,9.97
2022-08-07T12:22:39.327Z,10.18
2022-08-07T12:26:00.242Z,9.58
2022-08-07T12:28:30.864Z,9.61
2022-08-07T12:31:22.373Z,10.28
2022-08-07T12:34:11.376Z,10.78
2022-08-07T12:36:58.996Z,10.88
2022-08-07T12:39:50.907Z,10.68
2022-08-07T12:42:39.015Z,11.17
2022-08-07T12:45:42.667Z,10.18
2022-08-07T12:48:51.766Z,10.26
2022-08-07T12:51:51.364Z,10.54
2022-08-07T12:54:55.025Z,10.19
2022-08-07T12:58:00.397Z,10.48
2022-08-07T13:00:50.657Z,10.94
2022-08-07T13:03:55.024Z,9.85
2022-08-07T13:07:00.037Z,10.75
2022-08-07T13:10:19.806Z,9.76
2022-08-07T13:12:56.644Z,10.95
2022-08-07T13:15:44.895Z,10.65
2022-08-07T13:18:32.523Z,10.86
2022-08-07T13:21:37.174Z,11.05
2022-08-07T13:24:30.494Z,11.13
2022-08-07T13:27:20.672Z,10.05
2022-08-07T13:30:08.673Z,10.83
2022-08-07T13:34:14.789Z,10.12
2022-08-07T13:36:17.810Z,10.74
2022-08-07T13:39:12.876Z,10.48
2022-08-07T13:42:13.190Z,9.60
2022-08-07T13:45:21.069Z,9.73
2022-08-07T13:48:10.510Z,8.73
2022-08-07T13:51:27.637Z,9.38
2022-08-07T13:54:22.420Z,9.43
2022-08-07T13:57:10.264Z,10.16
2022-08-07T14:00:02.048Z,8.84
2022-08-07T14:02:53.981Z,9.36
2022-08-07T14:05:41.724Z,9.72
2022-08-07T14:08:29.499Z,9.14
2022-08-07T14:11:17.408Z,8.42
2022-08-07T14:14:05.254Z,8.63
2022-08-07T14:16:53.488Z,8.78
2022-08-07T14:20:42.162Z,8.79
2022-08-07T14:22:49.799Z,9.51
2022-08-07T14:25:39.692Z,8.99
2022-08-07T14:28:57.290Z,8.80
2022-08-07T14:31:43.459Z,9.13
2022-08-07T14:34:45.910Z,8.72
2022-08-07T14:37:39.284Z,8.79
2022-08-07T14:40:29.344Z,9.17
2022-08-07T14:46:31.227Z,8.33
2022-08-07T14:49:56.686Z,9.18
2022-08-07T14:52:28.730Z,8.83
2022-08-07T14:55:17.688Z,8.59
2022-08-07T14:58:05.729Z,8.45
2022-08-07T15:00:53.332Z,7.74
2022-08-07T15:03:52.767Z,8.24
2022-08-07T15:06:40.899Z,8.58
2022-08-07T15:09:57.490Z,8.39
2022-08-07T15:12:43.131Z,7.67
2022-08-07T15:15:42.832Z,7.91
2022-08-07T15:18:34.847Z,7.97
2022-08-07T15:21:58.459Z,8.18
2022-08-07T15:27:38.766Z,7.93
2022-08-07T15:31:04.905Z,8.02
2022-08-07T15:33:53.571Z,8.43
2022-08-07T15:39:57.825Z,8.53
2022-08-07T15:42:47.972Z,8.96
2022-08-07T15:45:56.613Z,7.96
2022-08-07T15:49:12.010Z,8.66
2022-08-07T15:54:45.602Z,7.49
2022-08-07T15:57:47.347Z,7.09
2022-08-07T16:00:36.600Z,6.38
2022-08-07T16:03:46.294Z,5.90
2022-08-07T16:06:33.159Z,5.84
2022-08-07T16:09:22.804Z,6.27
2022-08-07T16:12:12.127Z,5.97
2022-08-07T16:14:41.656Z,5.92
2022-08-07T16:17:15.077Z,6.33
2022-08-07T16:19:58.396Z,6.22
2022-08-07T16:22:33.674Z,6.08
2022-08-07T16:25:07.491Z,5.48
2022-08-07T16:27:39.979Z,6.17
2022-08-07T16:30:30.057Z,6.54
2022-08-07T16:32:56.067Z,6.32
2022-08-07T16:35:51.857Z,6.19
2022-08-07T16:38:11.370Z,6.63
2022-08-07T16:40:57.031Z,6.55
2022-08-07T16:44:02.348Z,6.72
2022-08-07T16:50:26.731Z,6.54
2022-08-07T16:51:57.570Z,6.64
2022-08-07T16:54:35.197Z,6.43
2022-08-07T16:57:06.488Z,6.47
2022-08-07T16:59:47.127Z,6.61
2022-08-07T17:02:14.745Z,6.27
2022-08-07T17:05:01.955Z,6.54
2022-08-07T17:07:55.760Z,6.50
2022-08-07T17:10:30.099Z,6.24
2022-08-07T17:13:01.059Z,6.56
2022-08-07T17:15:44.289Z,6.69
2022-08-07T17:18:17.998Z,6.40
2022-08-07T17:20:46.650Z,6.09
2022-08-07T17:23:14.093Z,6.33
2022-08-07T17:25:51.538Z,6.23
2022-08-07T17:28:20.069Z,6.31
2022-08-07T17:30:57.760Z,6.28
2022-08-07T17:34:08.989Z,6.44
2022-08-07T17:36:13.714Z,6.13
2022-08-07T17:38:50.339Z,6.52
2022-08-07T17:42:04.984Z,6.62
2022-08-07T17:44:06.493Z,6.55
2022-08-07T17:46:40.305Z,6.70
2022-08-07T17:49:09.209Z,5.95
2022-08-07T17:51:49.320Z,6.58
2022-08-07T17:54:29.903Z,6.25
2022-08-07T17:57:18.898Z,6.02
2022-08-07T17:59:46.773Z,6.16
2022-08-07T18:02:27.195Z,6.33
2022-08-07T18:04:54.600Z,6.49
2022-08-07T18:07:23.970Z,7.09
2022-08-07T18:10:06.092Z,6.63
2022-08-07T18:12:35.688Z,6.21
2022-08-07T18:15:08.834Z,6.16
2022-08-07T18:18:45.046Z,6.39
2022-08-07T18:21:10.001Z,6.37
2022-08-07T18:23:42.215Z,6.16
2022-08-07T18:26:01.218Z,6.20
2022-08-07T18:28:35.349Z,5.95
2022-08-07T18:31:03.517Z,6.32
2022-08-07T18:33:30.784Z,6.06
2022-08-07T18:35:58.433Z,6.29
2022-08-07T18:38:57.298Z,6.18
2022-08-07T18:41:20.482Z,5.79
2022-08-07T18:43:49.976Z,5.97
2022-08-07T18:46:26.966Z,6.15
2022-08-07T18:50:35.354Z,6.02
2022-08-07T18:52:34.873Z,5.88
2022-08-07T18:54:36.023Z,5.65
2022-08-07T18:57:30.413Z,5.78
2022-08-07T19:00:33.221Z,5.47
2022-08-07T19:02:59.018Z,5.12
2022-08-07T19:05:27.062Z,5.26
2022-08-07T19:08:15.972Z,5.02
2022-08-07T19:10:51.803Z,4.88
2022-08-07T19:13:21.968Z,5.04
2022-08-07T19:16:02.860Z,4.96
2022-08-07T19:18:44.645Z,5.23
2022-08-07T19:21:44.010Z,5.44
2022-08-07T19:24:01.964Z,5.57
2022-08-07T19:26:39.624Z,5.76
2022-08-07T19:31:02.235Z,5.61
2022-08-07T19:32:17.717Z,5.71
2022-08-07T19:34:53.992Z,5.87
2022-08-07T19:37:23.004Z,5.79
2022-08-07T19:39:57.856Z,5.87
2022-08-07T19:42:31.988Z,5.99
2022-08-07T19:45:09.962Z,6.54
2022-08-07T19:47:39.256Z,6.71
2022-08-07T19:50:41.499Z,6.53
2022-08-07T19:53:01.086Z,6.66
2022-08-07T19:55:57.461Z,6.91
2022-08-07T19:58:28.332Z,7.36
2022-08-07T20:00:57.852Z,7.19
2022-08-07T20:03:35.318Z,7.17
2022-08-07T20:06:04.425Z,7.91
2022-08-07T20:08:32.805Z,8.36
2022-08-07T20:11:02.116Z,8.78
2022-08-07T20:13:32.364Z,8.82
2022-08-07T20:15:59.671Z,9.41
2022-08-07T20:18:32.669Z,9.68
2022-08-07T20:21:00.779Z,10.26
2022-08-07T20:23:42.993Z,10.08
2022-08-07T20:26:10.774Z,10.25
2022-08-07T20:28:38.412Z,10.13
2022-08-07T20:31:06.413Z,10.53
2022-08-07T20:33:37.553Z,10.75
2022-08-07T20:36:05.664Z,10.26
2022-08-07T20:38:33.244Z,10.29
2022-08-07T20:41:00.562Z,9.70
2022-08-07T20:43:31.271Z,9.74
2022-08-07T20:46:27.636Z,9.93
2022-08-07T20:49:53.958Z,9.51
2022-08-07T20:51:36.056Z,10.12
2022-08-07T20:54:09.402Z,9.49
2022-08-07T20:56:41.587Z,9.92
2022-08-07T21:00:04.291Z,9.82
2022-08-07T21:02:00.823Z,9.60
2022-08-07T21:04:28.323Z,10.15
2022-08-07T21:06:56.876Z,10.25
2022-08-07T21:09:27.847Z,10.10
2022-08-07T21:11:55.233Z,9.83
2022-08-07T21:14:32.515Z,10.44
2022-08-07T21:18:02.188Z,10.10
2022-08-07T21:19:51.453Z,10.52
2022-08-07T21:22:33.262Z,10.41
2022-08-07T21:25:00.917Z,10.64
2022-08-07T21:27:39.816Z,10.66
2022-08-07T21:30:07.708Z,10.92
2022-08-07T21:32:47.459Z,10.83
2022-08-07T21:35:17.012Z,10.39
2022-08-07T21:38:02.375Z,10.21
2022-08-07T21:40:35.726Z,9.92
2022-08-07T21:43:03.591Z,9.98
2022-08-07T21:46:08.492Z,9.95
2022-08-07T21:48:33.318Z,10.17
2022-08-07T21:51:02.717Z,10.36
2022-08-07T21:53:31.380Z,10.15
2022-08-07T21:56:04.243Z,9.97
2022-08-07T21:58:32.817Z,10.77
2022-08-07T22:01:00.295Z,10.03
2022-08-07T22:03:30.906Z,10.12
2022-08-07T22:05:59.077Z,9.90
2022-08-07T22:08:26.381Z,10.61
2022-08-07T22:10:55.352Z,10.87
2022-08-07T22:13:24.618Z,10.45
2022-08-07T22:16:45.608Z,10.44
2022-08-07T22:18:57.117Z,10.71
2022-08-07T22:21:24.834Z,10.11
2022-08-07T22:24:12.065Z,10.47
2022-08-07T22:26:44.438Z,10.20
2022-08-07T22:29:13.998Z,10.31
2022-08-07T22:31:56.421Z,10.50
2022-08-07T22:34:29.010Z,10.33
2022-08-07T22:36:58.920Z,10.14
2022-08-07T22:39:26.285Z,10.23
2022-08-07T22:42:04.079Z,10.93
2022-08-07T22:44:58.328Z,10.43
2022-08-07T22:47:26.874Z,10.59
2022-08-07T22:52:36.857Z,10.42
2022-08-07T22:55:17.501Z,11.26
2022-08-07T22:57:50.082Z,10.74
2022-08-07T23:00:17.420Z,10.82
2022-08-07T23:02:44.801Z,11.11
2022-08-07T23:06:08.270Z,10.74
2022-08-07T23:07:59.368Z,10.65
2022-08-07T23:10:37.380Z,11.26
2022-08-07T23:13:07.203Z,11.20
2022-08-07T23:16:06.273Z,11.19
2022-08-07T23:18:22.380Z,10.75
2022-08-07T23:20:53.799Z,10.89
2022-08-07T23:24:05.680Z,11.28
2022-08-07T23:26:09.185Z,10.76
2022-08-07T23:28:36.457Z,10.94
2022-08-07T23:31:13.902Z,10.85
2022-08-07T23:34:34.064Z,11.30
2022-08-07T23:36:33.533Z,11.03
2022-08-07T23:39:01.735Z,11.34
2022-08-07T23:42:01.638Z,11.32
2022-08-07T23:44:29.460Z,11.70
2022-08-07T23:46:57.220Z,11.31
2022-08-07T23:49:24.820Z,11.08
2022-08-07T23:53:06.607Z,11.56
2022-08-07T23:54:57.103Z,11.16
2022-08-07T23:57:24.412Z,11.42
